Time;durP1;ratioP1;P1;durP2;ratioP2;P2;SDS_P1;SDS_P2;PMS_P1;PMS_P2;Temp;Humidity;BMP_temperature;BMP_pressure;BME280_temperature;BME280_humidity;BME280_pressure;Samples;Min_cycle;Max_cycle;Signal;HPM_P1;HPM_P2
2021/06/19 00:00:08;;;;;;;;;5.75;5.75;;;;;;;;5008473;22;46093;-89
2021/06/19 00:02:33;;;;;;;;;8.75;8.50;;;;;;;;4973934;28;45626;-88
2021/06/19 00:07:34;;;;;;;;;10.50;6.00;;;;;;;;5806387;23;45883;-88
2021/06/19 00:09:59;;;;;;;;;6.50;6.50;;;;;;;;4952746;28;45627;-89
2021/06/19 00:12:24;;;;;;;;;5.50;5.50;;;;;;;;4951388;28;45836;-88
2021/06/19 00:14:49;;;;;;;;;6.00;5.00;;;;;;;;5000142;23;47457;-88
2021/06/19 00:19:50;;;;;;;;;6.00;5.50;;;;;;;;5524364;23;46046;-89
2021/06/19 00:22:15;;;;;;;;;6.00;6.00;;;;;;;;5249756;23;45752;-89
2021/06/19 00:24:41;;;;;;;;;6.00;6.00;;;;;;;;5291716;23;47263;-88
2021/06/19 00:27:06;;;;;;;;;8.75;6.25;;;;;;;;4950915;28;45557;-88
2021/06/19 00:29:32;;;;;;;;;8.75;6.25;;;;;;;;4947912;28;45743;-88
2021/06/19 00:31:58;;;;;;;;;7.75;7.75;;;;;;;;4941533;28;45387;-89
2021/06/19 00:36:58;;;;;;;;;6.75;6.75;;;;;;;;5398142;23;45756;-89
2021/06/19 00:39:23;;;;;;;;;4.75;4.50;;;;;;;;4972490;28;45623;-89
2021/06/19 00:41:49;;;;;;;;;7.25;6.00;;;;;;;;4981762;28;45549;-88
2021/06/19 00:46:50;;;;;;;;;7.50;5.50;;;;;;;;4977151;28;45350;-89
2021/06/19 00:49:16;;;;;;;;;9.75;7.25;;;;;;;;4965460;28;45349;-88
2021/06/19 00:51:41;;;;;;;;;6.25;6.25;;;;;;;;4979155;28;45391;-89
2021/06/19 00:54:06;;;;;;;;;7.50;6.50;;;;;;;;5008532;23;46401;-88
2021/06/19 00:56:34;;;;;;;;;6.50;6.50;;;;;;;;4984073;28;46012;-89
2021/06/19 01:01:34;;;;;;;;;6.25;6.25;;;;;;;;5361044;23;47041;-88
2021/06/19 01:04:00;;;;;;;;;8.25;7.50;;;;;;;;4980899;28;47139;-88
2021/06/19 01:06:25;;;;;;;;;7.00;6.50;;;;;;;;4974336;28;45490;-88
2021/06/19 01:11:26;;;;;;;;;6.25;6.25;;;;;;;;5552616;23;46991;-88
2021/06/19 01:13:52;;;;;;;;;8.75;6.50;;;;;;;;4915808;28;46537;-89
2021/06/19 01:16:18;;;;;;;;;9.00;7.75;;;;;;;;4937608;28;45507;-88
2021/06/19 01:18:44;;;;;;;;;7.00;7.00;;;;;;;;4933263;28;46228;-88
2021/06/19 01:28:55;;;;;;;;;8.00;8.00;;;;;;;;5493347;23;45836;-91
2021/06/19 01:31:20;;;;;;;;;10.00;8.50;;;;;;;;4964122;28;45550;-91
2021/06/19 01:33:47;;;;;;;;;8.50;8.50;;;;;;;;4969790;28;45465;-91
2021/06/19 01:36:13;;;;;;;;;6.25;6.25;;;;;;;;4973856;28;45586;-90
2021/06/19 01:38:39;;;;;;;;;9.75;8.75;;;;;;;;4966879;28;45332;-90
2021/06/19 01:41:04;;;;;;;;;9.50;7.50;;;;;;;;4961510;28;46169;-90
2021/06/19 01:43:30;;;;;;;;;9.75;7.75;;;;;;;;4962677;28;47747;-90
2021/06/19 01:45:55;;;;;;;;;10.00;7.00;;;;;;;;5327639;23;45715;-90
2021/06/19 01:48:20;;;;;;;;;8.50;8.00;;;;;;;;4985312;28;45616;-90
2021/06/19 01:50:45;;;;;;;;;8.67;8.67;;;;;;;;4967899;28;45585;-90
2021/06/19 01:55:51;;;;;;;;;8.00;8.00;;;;;;;;5127860;23;45733;-83
2021/06/19 01:58:19;;;;;;;;;8.00;8.00;;;;;;;;4967852;28;45482;-81
2021/06/19 02:00:44;;;;;;;;;7.50;7.50;;;;;;;;4975935;28;45575;-81
2021/06/19 02:06:12;;;;;;;;;8.50;8.50;;;;;;;;5026850;23;45394;-90
2021/06/19 02:08:38;;;;;;;;;6.50;6.50;;;;;;;;5000798;28;45653;-90
2021/06/19 02:11:04;;;;;;;;;7.50;7.50;;;;;;;;4971933;28;46505;-91
2021/06/19 02:13:30;;;;;;;;;9.25;8.00;;;;;;;;4981793;28;47804;-90
2021/06/19 02:15:56;;;;;;;;;7.50;7.50;;;;;;;;4966050;28;47229;-90
2021/06/19 02:26:06;;;;;;;;;9.75;9.00;;;;;;;;5164710;23;46800;-89
2021/06/19 02:28:32;;;;;;;;;8.25;8.25;;;;;;;;4984205;28;45802;-89
2021/06/19 02:30:58;;;;;;;;;8.25;8.25;;;;;;;;4984228;28;45477;-89
2021/06/19 02:33:24;;;;;;;;;11.75;10.25;;;;;;;;4982177;28;46360;-91
2021/06/19 02:38:24;;;;;;;;;9.25;8.00;;;;;;;;5253684;23;46538;-88
2021/06/19 02:40:50;;;;;;;;;10.50;9.00;;;;;;;;4946575;28;45645;-88
2021/06/19 02:43:17;;;;;;;;;7.25;7.25;;;;;;;;4949361;28;47292;-88
2021/06/19 02:45:42;;;;;;;;;13.75;8.00;;;;;;;;4941485;28;45551;-89
2021/06/19 02:50:44;;;;;;;;;9.75;8.50;;;;;;;;5972271;23;47060;-88
2021/06/19 02:53:11;;;;;;;;;9.00;8.50;;;;;;;;4935809;28;46294;-89
2021/06/19 02:55:37;;;;;;;;;9.75;8.75;;;;;;;;4935418;28;45617;-88
2021/06/19 02:58:04;;;;;;;;;10.25;9.50;;;;;;;;4938923;28;45482;-87
2021/06/19 03:00:29;;;;;;;;;13.00;10.50;;;;;;;;4935098;28;45545;-88
2021/06/19 03:05:31;;;;;;;;;9.75;8.75;;;;;;;;5951750;23;45855;-88
2021/06/19 03:07:56;;;;;;;;;12.00;9.75;;;;;;;;4968905;28;45462;-88
2021/06/19 03:10:23;;;;;;;;;7.50;7.50;;;;;;;;4966356;28;45540;-89
2021/06/19 03:12:48;;;;;;;;;9.25;9.00;;;;;;;;4962377;28;47295;-88
2021/06/19 03:15:14;;;;;;;;;8.75;8.00;;;;;;;;4964835;28;45464;-88
2021/06/19 03:17:39;;;;;;;;;10.75;9.75;;;;;;;;4967774;28;45465;-89
2021/06/19 03:20:06;;;;;;;;;10.50;10.50;;;;;;;;4948218;28;45813;-88
2021/06/19 03:23:00;;;;;;;;;8.00;8.00;;;;;;;;4968221;28;46962;-88
2021/06/19 03:25:27;;;;;;;;;10.25;9.00;;;;;;;;4938894;28;45993;-89
2021/06/19 03:27:52;;;;;;;;;14.50;9.25;;;;;;;;4965114;28;45585;-89
2021/06/19 03:30:19;;;;;;;;;9.00;9.00;;;;;;;;4970519;28;45723;-88
2021/06/19 03:32:44;;;;;;;;;10.75;10.75;;;;;;;;4966869;28;45668;-88
2021/06/19 03:35:10;;;;;;;;;10.50;9.00;;;;;;;;4967962;28;45675;-88
2021/06/19 03:37:35;;;;;;;;;11.75;9.00;;;;;;;;4967537;28;45427;-88
2021/06/19 03:40:00;;;;;;;;;10.00;10.00;;;;;;;;4968341;28;45351;-88
2021/06/19 03:50:12;;;;;;;;;11.50;10.50;;;;;;;;5315819;23;47133;-83
2021/06/19 03:52:48;;;;;;;;;;;;;;;;;;;;;
2021/06/19 04:03:36;;;;;;;;;9.75;8.75;;;;;;;;4988040;23;45814;-90
2021/06/19 04:06:01;;;;;;;;;9.00;9.00;;;;;;;;4959130;28;45967;-89
2021/06/19 04:08:26;;;;;;;;;9.75;9.50;;;;;;;;4970689;28;45331;-89
2021/06/19 04:13:19;;;;;;;;;11.75;9.50;;;;;;;;4991626;28;45818;-88
2021/06/19 04:15:44;;;;;;;;;9.00;9.00;;;;;;;;5148057;23;45668;-88
2021/06/19 04:18:10;;;;;;;;;9.00;8.67;;;;;;;;4951862;28;45403;-90
2021/06/19 04:20:35;;;;;;;;;11.50;11.50;;;;;;;;4953625;28;45316;-89
2021/06/19 04:23:00;;;;;;;;;12.25;9.25;;;;;;;;4952548;28;46105;-89
2021/06/19 04:36:29;;;;;;;;;14.75;12.50;;;;;;;;4961418;23;45467;-89
2021/06/19 04:38:54;;;;;;;;;9.67;9.00;;;;;;;;4996568;28;45536;-89
2021/06/19 04:41:30;;;;;;;;;14.33;11.33;;;;;;;;4974214;28;45328;-90
2021/06/19 04:46:31;;;;;;;;;14.50;10.50;;;;;;;;4973880;23;45824;-92
2021/06/19 04:48:56;;;;;;;;;11.00;9.50;;;;;;;;4939097;28;45863;-92
2021/06/19 04:51:22;;;;;;;;;9.00;8.33;;;;;;;;4941428;28;45470;-90
2021/06/19 04:53:47;;;;;;;;;11.50;11.00;;;;;;;;4960075;28;45952;-87
2021/06/19 04:56:33;;;;;;;;;11.00;10.33;;;;;;;;4979164;28;45002;-88
2021/06/19 04:59:07;;;;;;;;;12.50;12.25;;;;;;;;4959784;28;45496;-87
2021/06/19 05:01:32;;;;;;;;;11.50;9.50;;;;;;;;4947960;28;45436;-88
2021/06/19 05:04:00;;;;;;;;;14.50;11.00;;;;;;;;4964329;28;46339;-91
2021/06/19 05:06:26;;;;;;;;;11.75;9.00;;;;;;;;4984123;23;45687;-83
2021/06/19 05:08:51;;;;;;;;;8.00;8.00;;;;;;;;4970079;23;45917;-83
2021/06/19 05:14:31;;;;;;;;;10.25;10.00;;;;;;;;4971622;23;45533;-91
2021/06/19 05:16:56;;;;;;;;;9.67;8.67;;;;;;;;4973134;28;45344;-91
2021/06/19 05:21:56;;;;;;;;;8.50;8.50;;;;;;;;5479372;23;45455;-90
2021/06/19 05:24:21;;;;;;;;;11.50;11.50;;;;;;;;4973522;28;47486;-91
2021/06/19 05:29:14;;;;;;;;;16.00;12.00;;;;;;;;4956349;28;44900;-90
2021/06/19 05:31:40;;;;;;;;;15.75;14.75;;;;;;;;4981346;23;45279;-90
2021/06/19 05:34:05;;;;;;;;;26.75;22.25;;;;;;;;5052965;23;46441;-90
2021/06/19 05:36:30;;;;;;;;;38.67;31.00;;;;;;;;4986287;28;45607;-90
2021/06/19 05:38:55;;;;;;;;;52.25;41.75;;;;;;;;4983419;28;45666;-90
2021/06/19 05:41:20;;;;;;;;;51.33;40.33;;;;;;;;4973693;28;45513;-89
2021/06/19 05:43:46;;;;;;;;;58.33;43.33;;;;;;;;4992381;28;45843;-90
2021/06/19 05:46:11;;;;;;;;;58.67;45.00;;;;;;;;4980195;28;45393;-90
2021/06/19 05:48:36;;;;;;;;;66.75;53.75;;;;;;;;4995340;28;45413;-90
2021/06/19 05:51:02;;;;;;;;;64.67;49.67;;;;;;;;4991697;28;45555;-90
2021/06/19 05:53:27;;;;;;;;;53.33;40.67;;;;;;;;4968686;28;50246;-90
2021/06/19 05:55:53;;;;;;;;;63.75;46.50;;;;;;;;4987018;28;45232;-89
2021/06/19 05:58:18;;;;;;;;;67.25;51.00;;;;;;;;4973518;28;45402;-89
2021/06/19 06:00:43;;;;;;;;;55.00;45.33;;;;;;;;4983545;28;45485;-89
2021/06/19 06:03:08;;;;;;;;;38.67;33.00;;;;;;;;4975545;28;46878;-90
2021/06/19 06:05:34;;;;;;;;;36.33;30.00;;;;;;;;4973058;28;45593;-90
2021/06/19 06:08:02;;;;;;;;;32.50;31.00;;;;;;;;4970969;28;45671;-89
2021/06/19 06:10:28;;;;;;;;;29.50;27.50;;;;;;;;4991263;28;45609;-90
2021/06/19 06:12:53;;;;;;;;;30.25;27.50;;;;;;;;4987470;28;46335;-90
2021/06/19 06:15:19;;;;;;;;;30.50;27.50;;;;;;;;5003033;23;45601;-89
2021/06/19 06:17:44;;;;;;;;;38.50;30.50;;;;;;;;4973376;28;45416;-89
2021/06/19 06:20:09;;;;;;;;;25.25;23.50;;;;;;;;5039452;23;45941;-83
2021/06/19 06:22:35;;;;;;;;;31.75;27.50;;;;;;;;4985139;28;47684;-82
2021/06/19 06:25:00;;;;;;;;;25.75;25.25;;;;;;;;4965077;28;45738;-82
2021/06/19 06:27:54;;;;;;;;;32.50;26.00;;;;;;;;4953918;28;46129;-82
2021/06/19 06:30:29;;;;;;;;;25.75;22.25;;;;;;;;4981864;28;45553;-83
2021/06/19 06:32:54;;;;;;;;;16.50;14.50;;;;;;;;4982736;28;45603;-82
2021/06/19 06:35:19;;;;;;;;;23.00;17.50;;;;;;;;4979424;28;45513;-83
2021/06/19 06:37:45;;;;;;;;;17.75;17.00;;;;;;;;4954276;28;45694;-83
2021/06/19 06:40:11;;;;;;;;;17.75;15.50;;;;;;;;4984662;28;45722;-82
2021/06/19 06:42:46;;;;;;;;;16.25;13.00;;;;;;;;4967483;28;47597;-82
2021/06/19 06:48:36;;;;;;;;;12.50;11.25;;;;;;;;4998846;28;45484;-82
2021/06/19 06:51:01;;;;;;;;;12.00;10.75;;;;;;;;4987207;28;45395;-83
2021/06/19 06:53:29;;;;;;;;;12.00;11.25;;;;;;;;4955571;28;47190;-81
2021/06/19 06:55:54;;;;;;;;;10.50;10.50;;;;;;;;4981296;28;45775;-82
2021/06/19 06:58:22;;;;;;;;;13.50;12.00;;;;;;;;4987755;28;45532;-83
2021/06/19 07:01:08;;;;;;;;;;;;;;;;;;;;;
2021/06/19 07:03:34;;;;;;;;;12.00;12.00;;;;;;;;4982557;28;74564;-83
2021/06/19 07:06:37;;;;;;;;;15.25;13.75;;;;;;;;4988638;28;45636;-83
2021/06/19 07:09:02;;;;;;;;;14.50;12.25;;;;;;;;4907848;28;45599;-82
2021/06/19 07:12:21;;;;;;;;;11.00;11.00;;;;;;;;4888903;28;53473;-83
2021/06/19 07:14:39;;;;;;;;;18.00;16.00;;;;;;;;4899213;28;46621;-83
2021/06/19 07:17:09;;;;;;;;;10.50;10.00;;;;;;;;4902214;28;45715;-83
2021/06/19 07:19:35;;;;;;;;;12.00;10.50;;;;;;;;4908389;28;45944;-82
2021/06/19 07:22:41;;;;;;;;;12.25;11.50;;;;;;;;4923841;28;45512;-83
2021/06/19 07:25:09;;;;;;;;;10.75;10.75;;;;;;;;4924311;28;47105;-82
2021/06/19 07:27:35;;;;;;;;;11.25;10.50;;;;;;;;4906289;28;46192;-84
2021/06/19 07:30:00;;;;;;;;;15.50;12.50;;;;;;;;4925646;28;45589;-83
2021/06/19 07:36:11;;;;;;;;;10.00;9.25;;;;;;;;4883151;28;45995;-82
2021/06/19 07:38:35;;;;;;;;;6.75;6.75;;;;;;;;4868985;29;45535;-83
2021/06/19 07:41:01;;;;;;;;;6.75;6.75;;;;;;;;4865478;29;45622;-82
2021/06/19 07:43:26;;;;;;;;;11.75;9.25;;;;;;;;4870628;29;45977;-83
2021/06/19 07:46:06;;;;;;;;;8.00;7.75;;;;;;;;4876866;29;45754;-83
2021/06/19 07:48:32;;;;;;;;;9.25;9.25;;;;;;;;4879640;29;45769;-83
2021/06/19 07:50:57;;;;;;;;;10.00;9.50;;;;;;;;4893827;29;45565;-82
2021/06/19 07:53:23;;;;;;;;;10.50;10.00;;;;;;;;4889732;28;45521;-83
2021/06/19 07:56:08;;;;;;;;;9.50;8.75;;;;;;;;4870266;29;46234;-83
2021/06/19 07:58:42;;;;;;;;;8.00;6.75;;;;;;;;4886131;28;45566;-83
2021/06/19 08:01:25;;;;;;;;;8.75;7.25;;;;;;;;4890711;28;45526;-82
2021/06/19 08:22:18;;;;;;;;;9.00;9.00;;;;;;;;5003639;23;45500;-90
2021/06/19 08:24:46;;;;;;;;;9.00;7.50;;;;;;;;4991357;28;45393;-89
2021/06/19 08:27:11;;;;;;;;;8.75;8.50;;;;;;;;4976429;28;45395;-92
2021/06/19 08:29:36;;;;;;;;;10.25;8.75;;;;;;;;4988912;28;45763;-91
2021/06/19 08:32:02;;;;;;;;;5.00;5.00;;;;;;;;4995812;28;45682;-91
2021/06/19 08:34:27;;;;;;;;;11.00;9.00;;;;;;;;4993190;28;45457;-89
2021/06/19 08:36:52;;;;;;;;;12.67;10.00;;;;;;;;4982464;28;45489;-90
2021/06/19 08:39:17;;;;;;;;;8.00;8.00;;;;;;;;4997028;28;45330;-91
2021/06/19 08:41:44;;;;;;;;;8.75;8.75;;;;;;;;4978660;28;45320;-91
2021/06/19 08:44:10;;;;;;;;;9.50;8.00;;;;;;;;4996886;28;45443;-92
2021/06/19 08:46:35;;;;;;;;;8.50;8.50;;;;;;;;4978505;28;45636;-91
2021/06/19 08:52:21;;;;;;;;;7.75;7.00;;;;;;;;5178532;23;45810;-80
2021/06/19 08:54:52;;;;;;;;;8.50;8.50;;;;;;;;4969929;28;45600;-86
2021/06/19 08:57:47;;;;;;;;;;;;;;;;;;;;;
2021/06/19 09:00:39;;;;;;;;;9.75;8.75;;;;;;;;4957481;28;75789;-86
2021/06/19 09:03:02;;;;;;;;;8.75;7.50;;;;;;;;5013869;23;45768;-92
2021/06/19 09:05:28;;;;;;;;;10.00;8.75;;;;;;;;4993826;28;45795;-92
2021/06/19 09:07:54;;;;;;;;;9.00;7.50;;;;;;;;4972334;28;45291;-92
2021/06/19 09:10:30;;;;;;;;;9.00;9.00;;;;;;;;4986632;28;45628;-91
2021/06/19 09:15:35;;;;;;;;;8.50;7.25;;;;;;;;1874158;23;46242;-90
2021/06/19 09:18:19;;;;;;;;;8.00;7.00;;;;;;;;4978266;28;45521;-89
2021/06/19 09:21:01;;;;;;;;;9.00;7.00;;;;;;;;4986745;28;45752;-89
2021/06/19 09:23:26;;;;;;;;;10.00;9.25;;;;;;;;4986938;28;45421;-95
2021/06/19 09:26:04;;;;;;;;;7.50;7.00;;;;;;;;4992033;28;45251;-91
2021/06/19 09:28:29;;;;;;;;;7.25;6.25;;;;;;;;4988449;28;45465;-91
2021/06/19 09:30:55;;;;;;;;;9.33;9.00;;;;;;;;4989700;28;46242;-92
2021/06/19 09:33:20;;;;;;;;;11.33;10.00;;;;;;;;4991604;28;45402;-92
2021/06/19 09:35:48;;;;;;;;;9.00;9.00;;;;;;;;4988083;23;45613;-85
2021/06/19 09:38:14;;;;;;;;;12.00;10.75;;;;;;;;4966041;28;45679;-88
2021/06/19 09:40:41;;;;;;;;;8.25;6.75;;;;;;;;4984433;23;45517;-91
2021/06/19 09:43:19;;;;;;;;;8.00;8.00;;;;;;;;4958112;28;45669;-91
2021/06/19 09:46:05;;;;;;;;;8.25;8.00;;;;;;;;4957014;28;46184;-92
2021/06/19 09:48:30;;;;;;;;;9.00;8.00;;;;;;;;4972117;23;45427;-91
2021/06/19 09:51:28;;;;;;;;;10.00;8.00;;;;;;;;4952133;28;46264;-91
2021/06/19 09:54:02;;;;;;;;;8.75;8.75;;;;;;;;4857250;29;45697;-89
2021/06/19 09:56:27;;;;;;;;;8.75;6.25;;;;;;;;4839324;29;44942;-92
2021/06/19 09:58:57;;;;;;;;;13.50;11.00;;;;;;;;4847211;29;46168;-93
2021/06/19 10:01:33;;;;;;;;;9.50;9.50;;;;;;;;4858615;29;47650;-91
2021/06/19 10:03:58;;;;;;;;;7.25;7.25;;;;;;;;4841237;29;45483;-90
2021/06/19 10:06:24;;;;;;;;;9.50;9.50;;;;;;;;4856791;29;45402;-91
2021/06/19 10:08:54;;;;;;;;;9.00;7.00;;;;;;;;4975015;23;45523;-88
2021/06/19 10:14:24;;;;;;;;;9.50;9.00;;;;;;;;4996519;23;45371;-93
2021/06/19 10:19:26;;;;;;;;;9.00;9.00;;;;;;;;5162087;23;45501;-89
2021/06/19 10:22:00;;;;;;;;;10.75;10.75;;;;;;;;4948581;28;46465;-89
2021/06/19 10:24:26;;;;;;;;;10.50;8.00;;;;;;;;4931786;28;50636;-89
2021/06/19 10:30:04;;;;;;;;;10.25;10.00;;;;;;;;4867432;29;45755;-88
2021/06/19 10:32:50;;;;;;;;;12.75;9.25;;;;;;;;4868843;29;46754;-88
2021/06/19 10:35:22;;;;;;;;;10.25;10.25;;;;;;;;4856807;29;46187;-89
2021/06/19 10:38:18;;;;;;;;;;;;;;;;;;;;;
2021/06/19 10:40:50;;;;;;;;;8.75;8.00;;;;;;;;4901000;23;70227;-91
2021/06/19 10:43:17;;;;;;;;;10.75;10.00;;;;;;;;4958581;28;47243;-91
2021/06/19 10:45:45;;;;;;;;;10.00;8.25;;;;;;;;4962675;28;45368;-93
2021/06/19 10:48:15;;;;;;;;;9.00;8.50;;;;;;;;4957494;28;45389;-90
2021/06/19 10:50:42;;;;;;;;;10.00;10.00;;;;;;;;4967023;28;45477;-91
2021/06/19 10:53:08;;;;;;;;;9.00;8.00;;;;;;;;4971742;28;46633;-88
2021/06/19 10:55:34;;;;;;;;;13.00;11.00;;;;;;;;4965890;28;45296;-92
2021/06/19 10:58:01;;;;;;;;;10.25;10.25;;;;;;;;4960328;28;45586;-90
2021/06/19 11:00:42;;;;;;;;;13.00;12.00;;;;;;;;4960669;28;45516;-89
2021/06/19 11:03:07;;;;;;;;;10.50;9.00;;;;;;;;4966647;28;47138;-92
2021/06/19 11:05:45;;;;;;;;;9.50;9.50;;;;;;;;4966725;28;45302;-91
2021/06/19 11:08:10;;;;;;;;;10.25;9.00;;;;;;;;4946744;28;45464;-93
2021/06/19 11:10:55;;;;;;;;;13.33;10.00;;;;;;;;4971707;28;45593;-91
2021/06/19 11:13:29;;;;;;;;;10.75;10.00;;;;;;;;4962844;28;46242;-89
2021/06/19 11:15:56;;;;;;;;;9.75;8.75;;;;;;;;4961820;28;45803;-93
2021/06/19 11:18:43;;;;;;;;;9.25;8.00;;;;;;;;5074474;23;46734;-87
2021/06/19 11:27:14;;;;;;;;;10.00;10.00;;;;;;;;5045495;23;47103;-96
2021/06/19 11:29:41;;;;;;;;;10.50;10.00;;;;;;;;4937004;28;45716;-90
2021/06/19 11:32:24;;;;;;;;;17.00;14.00;;;;;;;;4951175;28;45441;-89
2021/06/19 11:34:51;;;;;;;;;12.25;9.75;;;;;;;;4957473;28;46163;-91
2021/06/19 11:37:16;;;;;;;;;11.25;10.50;;;;;;;;4957882;28;46105;-91
2021/06/19 11:42:41;;;;;;;;;9.75;9.75;;;;;;;;5137854;23;45444;-86
2021/06/19 11:48:44;;;;;;;;;9.75;9.25;;;;;;;;4913925;28;45716;-83
2021/06/19 11:51:48;;;;;;;;;11.25;11.25;;;;;;;;4911527;28;45527;-83
2021/06/19 11:54:14;;;;;;;;;12.00;11.00;;;;;;;;2621283;23;45951;-91
2021/06/19 11:56:40;;;;;;;;;11.50;10.25;;;;;;;;4989058;28;47804;-93
2021/06/19 11:59:06;;;;;;;;;11.25;10.75;;;;;;;;4991724;28;45647;-93
2021/06/19 12:01:38;;;;;;;;;10.00;10.00;;;;;;;;4995263;23;46190;-82
2021/06/19 12:04:24;;;;;;;;;11.00;10.50;;;;;;;;4970367;28;45819;-82
2021/06/19 12:06:57;;;;;;;;;11.25;10.00;;;;;;;;5004105;23;46315;-90
2021/06/19 12:09:28;;;;;;;;;13.50;11.25;;;;;;;;4988122;28;45410;-95
2021/06/19 12:11:55;;;;;;;;;13.00;12.25;;;;;;;;4993667;23;45483;-82
2021/06/19 12:14:27;;;;;;;;;9.00;9.00;;;;;;;;4942295;28;45533;-83
2021/06/19 12:16:57;;;;;;;;;8.00;8.00;;;;;;;;4979457;23;46315;-92
2021/06/19 12:19:24;;;;;;;;;12.00;10.75;;;;;;;;4984505;28;45463;-92
2021/06/19 12:21:49;;;;;;;;;10.25;10.25;;;;;;;;4987958;28;45513;-91
2021/06/19 12:24:21;;;;;;;;;10.00;10.00;;;;;;;;4973158;28;45390;-89
2021/06/19 12:26:59;;;;;;;;;13.00;8.00;;;;;;;;4989884;28;45456;-94
2021/06/19 12:29:33;;;;;;;;;10.75;10.75;;;;;;;;4970699;28;45461;-93
2021/06/19 12:31:59;;;;;;;;;11.25;11.25;;;;;;;;4986166;28;45414;-92
2021/06/19 12:34:26;;;;;;;;;10.00;10.00;;;;;;;;5004698;23;45563;-82
2021/06/19 12:36:53;;;;;;;;;10.00;10.00;;;;;;;;4986480;28;46198;-81
2021/06/19 12:39:21;;;;;;;;;11.00;10.00;;;;;;;;4985798;28;45878;-84
2021/06/19 12:41:47;;;;;;;;;12.50;9.50;;;;;;;;4974436;28;45536;-83
2021/06/19 12:44:12;;;;;;;;;10.00;10.00;;;;;;;;4986038;28;45461;-83
2021/06/19 12:46:37;;;;;;;;;10.00;10.00;;;;;;;;4981832;28;47128;-82
2021/06/19 12:49:04;;;;;;;;;13.00;12.00;;;;;;;;4983699;28;45645;-83
2021/06/19 12:51:36;;;;;;;;;10.50;10.50;;;;;;;;4967316;28;45725;-82
2021/06/19 12:54:15;;;;;;;;;10.50;10.25;;;;;;;;4988094;28;45472;-78
2021/06/19 12:56:57;;;;;;;;;10.00;10.00;;;;;;;;4985812;28;45551;-78
2021/06/19 12:59:23;;;;;;;;;10.25;10.00;;;;;;;;4982641;28;45926;-78
2021/06/19 13:02:02;;;;;;;;;13.50;10.00;;;;;;;;4988371;28;46051;-80
2021/06/19 13:04:29;;;;;;;;;11.75;11.75;;;;;;;;4990892;28;45709;-79
2021/06/19 13:07:02;;;;;;;;;11.00;9.75;;;;;;;;4984817;28;45870;-78
2021/06/19 13:09:44;;;;;;;;;11.25;11.25;;;;;;;;4967167;28;45902;-79
2021/06/19 13:12:10;;;;;;;;;13.25;11.00;;;;;;;;4990428;28;48016;-80
2021/06/19 13:14:35;;;;;;;;;10.25;9.25;;;;;;;;4969067;28;45741;-78
2021/06/19 13:17:12;;;;;;;;;11.00;10.00;;;;;;;;4985515;28;46205;-80
2021/06/19 13:19:39;;;;;;;;;11.50;9.00;;;;;;;;4986692;28;45532;-78
2021/06/19 13:22:04;;;;;;;;;12.00;10.00;;;;;;;;4955341;28;45689;-78
2021/06/19 13:24:31;;;;;;;;;11.00;10.75;;;;;;;;4986072;28;46070;-79
2021/06/19 13:27:16;;;;;;;;;11.25;10.75;;;;;;;;4968555;28;48346;-79
2021/06/19 13:29:43;;;;;;;;;11.25;10.00;;;;;;;;4970234;28;46210;-79
2021/06/19 13:32:09;;;;;;;;;11.50;10.00;;;;;;;;4979304;23;46611;-94
2021/06/19 13:34:35;;;;;;;;;12.00;11.50;;;;;;;;4959103;28;45507;-90
2021/06/19 13:37:12;;;;;;;;;12.25;11.50;;;;;;;;4955804;28;45460;-89
2021/06/19 13:39:40;;;;;;;;;9.00;9.00;;;;;;;;4953531;28;45221;-89
2021/06/19 13:42:08;;;;;;;;;13.50;11.00;;;;;;;;4971283;23;50631;-80
2021/06/19 13:44:37;;;;;;;;;10.75;9.50;;;;;;;;4942746;28;45723;-81
2021/06/19 13:47:03;;;;;;;;;11.25;10.25;;;;;;;;4964442;28;46834;-80
2021/06/19 13:49:28;;;;;;;;;11.75;10.75;;;;;;;;4989257;28;45604;-79
2021/06/19 13:51:58;;;;;;;;;12.75;11.75;;;;;;;;4967242;28;51747;-81
2021/06/19 13:54:24;;;;;;;;;10.50;10.25;;;;;;;;4975719;28;45590;-88
2021/06/19 13:56:50;;;;;;;;;9.75;9.75;;;;;;;;4988028;28;46328;-85
2021/06/19 13:59:15;;;;;;;;;11.25;11.25;;;;;;;;4966805;28;46001;-84
2021/06/19 14:01:43;;;;;;;;;13.25;11.50;;;;;;;;4988921;28;45860;-85
2021/06/19 14:04:09;;;;;;;;;13.25;10.50;;;;;;;;4966340;28;46558;-84
2021/06/19 14:06:34;;;;;;;;;10.50;10.50;;;;;;;;4982217;28;46436;-84
2021/06/19 14:09:00;;;;;;;;;11.25;10.25;;;;;;;;4986426;28;45692;-83
2021/06/19 14:11:27;;;;;;;;;9.00;9.00;;;;;;;;4982499;28;45510;-83
2021/06/19 14:13:52;;;;;;;;;10.75;9.75;;;;;;;;4981412;28;45584;-82
2021/06/19 14:16:18;;;;;;;;;10.50;10.50;;;;;;;;4990183;28;47249;-82
2021/06/19 14:18:44;;;;;;;;;10.75;9.50;;;;;;;;4984998;28;45517;-82
2021/06/19 14:21:12;;;;;;;;;12.50;10.00;;;;;;;;4988004;28;45670;-84
2021/06/19 14:23:38;;;;;;;;;10.00;10.00;;;;;;;;4982538;28;45760;-83
2021/06/19 14:26:06;;;;;;;;;13.00;11.25;;;;;;;;4983455;28;45892;-82
2021/06/19 14:28:31;;;;;;;;;9.50;9.50;;;;;;;;4986040;28;45714;-83
2021/06/19 14:31:06;;;;;;;;;10.00;10.00;;;;;;;;4983774;28;45555;-82
2021/06/19 14:33:32;;;;;;;;;10.25;10.25;;;;;;;;4982872;28;48922;-83
2021/06/19 14:35:57;;;;;;;;;11.50;11.00;;;;;;;;4987460;28;45823;-83
2021/06/19 14:38:23;;;;;;;;;11.50;10.00;;;;;;;;4983355;28;45480;-82
2021/06/19 14:40:48;;;;;;;;;12.75;10.75;;;;;;;;4977212;28;45474;-88
2021/06/19 14:43:19;;;;;;;;;10.75;10.25;;;;;;;;4986054;28;45492;-83
2021/06/19 14:45:45;;;;;;;;;12.00;11.75;;;;;;;;4981984;28;51337;-83
2021/06/19 14:48:11;;;;;;;;;11.75;9.00;;;;;;;;4980885;28;45569;-83
2021/06/19 14:50:39;;;;;;;;;9.00;9.00;;;;;;;;4983283;28;45819;-85
2021/06/19 14:53:07;;;;;;;;;9.50;9.50;;;;;;;;4964768;28;45587;-83
2021/06/19 14:55:35;;;;;;;;;11.00;10.25;;;;;;;;4964376;28;47025;-79
2021/06/19 14:58:00;;;;;;;;;12.00;9.75;;;;;;;;4981724;28;47884;-78
2021/06/19 15:00:25;;;;;;;;;11.75;10.25;;;;;;;;4984339;28;48409;-78
2021/06/19 15:02:50;;;;;;;;;9.25;8.00;;;;;;;;4986806;28;46072;-79
2021/06/19 15:05:16;;;;;;;;;10.25;8.00;;;;;;;;4983761;28;46286;-82
2021/06/19 15:07:41;;;;;;;;;7.75;7.75;;;;;;;;4984457;28;45506;-79
2021/06/19 15:10:10;;;;;;;;;10.75;9.50;;;;;;;;4984303;28;45689;-79
2021/06/19 15:12:36;;;;;;;;;9.50;9.00;;;;;;;;4964203;28;46772;-78
2021/06/19 15:15:01;;;;;;;;;10.50;9.25;;;;;;;;4987742;28;45655;-78
2021/06/19 15:17:29;;;;;;;;;9.00;8.00;;;;;;;;4983734;28;45570;-79
2021/06/19 15:19:54;;;;;;;;;9.75;9.75;;;;;;;;4965461;28;45814;-80
2021/06/19 15:22:22;;;;;;;;;11.50;9.25;;;;;;;;4987503;28;45507;-79
2021/06/19 15:24:47;;;;;;;;;12.00;10.25;;;;;;;;4955170;28;47628;-79
2021/06/19 15:27:12;;;;;;;;;11.50;10.00;;;;;;;;4969816;28;45612;-79
2021/06/19 15:29:40;;;;;;;;;7.00;7.00;;;;;;;;4982420;28;45405;-82
2021/06/19 15:32:06;;;;;;;;;10.25;10.00;;;;;;;;4979401;28;45605;-79
2021/06/19 15:34:32;;;;;;;;;11.75;9.75;;;;;;;;4987787;28;46054;-79
2021/06/19 15:36:57;;;;;;;;;11.25;10.75;;;;;;;;4982557;28;45601;-79
2021/06/19 15:39:23;;;;;;;;;7.00;7.00;;;;;;;;4964328;28;45512;-80
2021/06/19 15:41:51;;;;;;;;;10.00;10.00;;;;;;;;4988395;28;45600;-79
2021/06/19 15:44:16;;;;;;;;;12.00;11.00;;;;;;;;4950328;28;48017;-78
2021/06/19 15:46:41;;;;;;;;;8.75;8.75;;;;;;;;4968589;28;45926;-78
2021/06/19 15:49:06;;;;;;;;;9.00;9.00;;;;;;;;4965102;28;45546;-78
2021/06/19 15:51:33;;;;;;;;;10.25;9.00;;;;;;;;4963241;28;49685;-78
2021/06/19 15:53:58;;;;;;;;;10.00;10.00;;;;;;;;4967427;28;46025;-83
2021/06/19 15:56:24;;;;;;;;;13.00;13.00;;;;;;;;4961539;28;45485;-82
2021/06/19 15:58:49;;;;;;;;;12.75;12.75;;;;;;;;4964294;28;45628;-84
2021/06/19 16:01:26;;;;;;;;;13.00;12.33;;;;;;;;4966334;28;45741;-84
2021/06/19 16:03:51;;;;;;;;;13.75;13.75;;;;;;;;4962453;28;45778;-85
2021/06/19 16:06:34;;;;;;;;;12.25;11.75;;;;;;;;4974326;28;45515;-85
2021/06/19 16:09:00;;;;;;;;;23.00;19.50;;;;;;;;4965732;28;45407;-84
2021/06/19 16:11:35;;;;;;;;;19.50;15.50;;;;;;;;4963844;28;45713;-83
2021/06/19 16:14:00;;;;;;;;;38.75;29.00;;;;;;;;4962888;28;45700;-84
2021/06/19 16:16:52;;;;;;;;;26.75;21.50;;;;;;;;4967023;28;45710;-83
2021/06/19 16:19:44;;;;;;;;;26.50;25.25;;;;;;;;4964944;28;45585;-84
2021/06/19 16:22:14;;;;;;;;;51.75;31.25;;;;;;;;4963705;28;45484;-84
2021/06/19 16:30:49;;;;;;;;;25.25;21.00;;;;;;;;4955230;28;45784;-85
2021/06/19 16:33:14;;;;;;;;;63.75;40.75;;;;;;;;4970366;28;45805;-84
2021/06/19 16:35:40;;;;;;;;;21.00;21.00;;;;;;;;4966861;28;45517;-85
2021/06/19 16:38:05;;;;;;;;;31.50;26.75;;;;;;;;4980698;28;30467;-83
2021/06/19 16:40:33;;;;;;;;;25.00;21.75;;;;;;;;4986216;28;28492;-82
2021/06/19 16:42:58;;;;;;;;;22.25;21.50;;;;;;;;4983887;28;29689;-83
2021/06/19 16:45:23;;;;;;;;;18.50;18.00;;;;;;;;4982989;28;30939;-84
2021/06/19 16:47:52;;;;;;;;;15.50;15.50;;;;;;;;4994974;28;63428;-84
2021/06/19 16:53:51;;;;;;;;;18.00;16.00;;;;;;;;3922359;28;22303103;-83
2021/06/19 17:05:31;;;;;;;;;16.25;16.25;;;;;;;;4986740;28;9740;-85
2021/06/19 17:08:34;;;;;;;;;14.00;14.00;;;;;;;;4981557;28;9798;-87
2021/06/19 17:14:23;;;;;;;;;25.25;22.00;;;;;;;;4884096;29;26548;-85
2021/06/19 17:22:10;;;;;;;;;;;;;;;;;;505289;29;250114668;-93
2021/06/19 17:30:33;;;;;;;;;13.00;13.00;;;;;;;;3;18759586;233953488;-93